sensor_id;sensor_type;location;lat;lon;timestamp;P1;durP1;ratioP1;P2;durP2;ratioP2
55811;SDS011;41742;52.048;6.092;2022-12-18T00:01:17;38.03;;;16.73;;
55811;SDS011;41742;52.048;6.092;2022-12-18T00:03:58;38.00;;;16.52;;
55811;SDS011;41742;52.048;6.092;2022-12-18T00:06:24;41.70;;;16.42;;
55811;SDS011;41742;52.048;6.092;2022-12-18T00:08:51;42.40;;;17.60;;
55811;SDS011;41742;52.048;6.092;2022-12-18T00:11:18;38.40;;;15.90;;
55811;SDS011;41742;52.048;6.092;2022-12-18T00:13:46;50.67;;;17.73;;
55811;SDS011;41742;52.048;6.092;2022-12-18T00:16:12;36.03;;;16.95;;
55811;SDS011;41742;52.048;6.092;2022-12-18T00:18:40;37.45;;;14.52;;
55811;SDS011;41742;52.048;6.092;2022-12-18T00:21:08;37.20;;;16.50;;
55811;SDS011;41742;52.048;6.092;2022-12-18T00:23:35;35.42;;;14.80;;
55811;SDS011;41742;52.048;6.092;2022-12-18T00:26:04;36.78;;;13.93;;
55811;SDS011;41742;52.048;6.092;2022-12-18T00:28:33;33.83;;;14.07;;
55811;SDS011;41742;52.048;6.092;2022-12-18T00:31:02;35.15;;;14.57;;
55811;SDS011;41742;52.048;6.092;2022-12-18T00:33:29;34.13;;;15.27;;
55811;SDS011;41742;52.048;6.092;2022-12-18T00:35:59;24.90;;;13.32;;
55811;SDS011;41742;52.048;6.092;2022-12-18T00:38:35;38.25;;;14.13;;
55811;SDS011;41742;52.048;6.092;2022-12-18T00:41:02;36.80;;;14.55;;
55811;SDS011;41742;52.048;6.092;2022-12-18T00:43:28;33.15;;;14.60;;
55811;SDS011;41742;52.048;6.092;2022-12-18T00:45:54;32.58;;;14.45;;
55811;SDS011;41742;52.048;6.092;2022-12-18T00:48:20;25.65;;;12.25;;
55811;SDS011;41742;52.048;6.092;2022-12-18T00:50:49;31.15;;;13.57;;
55811;SDS011;41742;52.048;6.092;2022-12-18T00:53:15;30.80;;;14.00;;
55811;SDS011;41742;52.048;6.092;2022-12-18T00:55:42;29.08;;;13.63;;
55811;SDS011;41742;52.048;6.092;2022-12-18T00:58:08;30.75;;;14.52;;
55811;SDS011;41742;52.048;6.092;2022-12-18T01:00:35;33.97;;;14.65;;
55811;SDS011;41742;52.048;6.092;2022-12-18T01:03:03;32.65;;;14.32;;
55811;SDS011;41742;52.048;6.092;2022-12-18T01:05:29;26.85;;;12.73;;
55811;SDS011;41742;52.048;6.092;2022-12-18T01:07:55;33.00;;;14.45;;
55811;SDS011;41742;52.048;6.092;2022-12-18T01:10:21;32.22;;;13.13;;
55811;SDS011;41742;52.048;6.092;2022-12-18T01:12:47;25.10;;;13.48;;
55811;SDS011;41742;52.048;6.092;2022-12-18T01:15:13;29.90;;;12.95;;
55811;SDS011;41742;52.048;6.092;2022-12-18T01:17:40;27.80;;;13.38;;
55811;SDS011;41742;52.048;6.092;2022-12-18T01:20:06;35.42;;;13.07;;
55811;SDS011;41742;52.048;6.092;2022-12-18T01:22:33;28.73;;;13.20;;
55811;SDS011;41742;52.048;6.092;2022-12-18T01:24:59;32.88;;;14.02;;
55811;SDS011;41742;52.048;6.092;2022-12-18T01:27:25;30.98;;;12.65;;
55811;SDS011;41742;52.048;6.092;2022-12-18T01:29:50;32.65;;;14.48;;
55811;SDS011;41742;52.048;6.092;2022-12-18T01:32:18;35.70;;;13.88;;
55811;SDS011;41742;52.048;6.092;2022-12-18T01:34:44;28.95;;;12.98;;
55811;SDS011;41742;52.048;6.092;2022-12-18T01:37:10;31.35;;;14.10;;
55811;SDS011;41742;52.048;6.092;2022-12-18T01:39:35;28.27;;;13.82;;
55811;SDS011;41742;52.048;6.092;2022-12-18T01:42:08;34.75;;;14.70;;
55811;SDS011;41742;52.048;6.092;2022-12-18T01:47:38;30.88;;;14.07;;
55811;SDS011;41742;52.048;6.092;2022-12-18T01:50:13;30.20;;;14.23;;
55811;SDS011;41742;52.048;6.092;2022-12-18T01:52:48;26.80;;;13.30;;
55811;SDS011;41742;52.048;6.092;2022-12-18T01:55:16;32.30;;;14.48;;
55811;SDS011;41742;52.048;6.092;2022-12-18T01:57:45;31.48;;;13.63;;
55811;SDS011;41742;52.048;6.092;2022-12-18T02:00:14;35.47;;;13.85;;
55811;SDS011;41742;52.048;6.092;2022-12-18T02:02:43;36.17;;;13.98;;
55811;SDS011;41742;52.048;6.092;2022-12-18T02:05:12;31.00;;;13.75;;
55811;SDS011;41742;52.048;6.092;2022-12-18T02:10:36;25.35;;;12.13;;
55811;SDS011;41742;52.048;6.092;2022-12-18T02:13:19;32.45;;;14.93;;
55811;SDS011;41742;52.048;6.092;2022-12-18T02:18:41;37.35;;;14.35;;
55811;SDS011;41742;52.048;6.092;2022-12-18T02:21:18;29.40;;;13.18;;
55811;SDS011;41742;52.048;6.092;2022-12-18T02:26:50;32.25;;;13.82;;
55811;SDS011;41742;52.048;6.092;2022-12-18T02:29:26;33.20;;;13.70;;
55811;SDS011;41742;52.048;6.092;2022-12-18T02:32:05;41.38;;;15.68;;
55811;SDS011;41742;52.048;6.092;2022-12-18T02:34:36;30.50;;;13.73;;
55811;SDS011;41742;52.048;6.092;2022-12-18T02:37:05;30.85;;;13.70;;
55811;SDS011;41742;52.048;6.092;2022-12-18T02:39:38;36.70;;;13.23;;
55811;SDS011;41742;52.048;6.092;2022-12-18T02:42:05;31.60;;;12.77;;
55811;SDS011;41742;52.048;6.092;2022-12-18T02:44:35;22.65;;;12.52;;
55811;SDS011;41742;52.048;6.092;2022-12-18T02:47:10;21.38;;;11.20;;
55811;SDS011;41742;52.048;6.092;2022-12-18T02:52:28;24.80;;;12.30;;
55811;SDS011;41742;52.048;6.092;2022-12-18T02:57:54;35.30;;;13.35;;
55811;SDS011;41742;52.048;6.092;2022-12-18T03:00:28;24.98;;;11.50;;
55811;SDS011;41742;52.048;6.092;2022-12-18T03:08:36;26.05;;;12.68;;
55811;SDS011;41742;52.048;6.092;2022-12-18T03:11:10;22.88;;;11.88;;
55811;SDS011;41742;52.048;6.092;2022-12-18T03:13:45;25.20;;;12.07;;
55811;SDS011;41742;52.048;6.092;2022-12-18T03:16:26;26.77;;;12.95;;
55811;SDS011;41742;52.048;6.092;2022-12-18T03:18:56;32.28;;;12.27;;
55811;SDS011;41742;52.048;6.092;2022-12-18T03:21:51;20.77;;;10.95;;
55811;SDS011;41742;52.048;6.092;2022-12-18T03:24:22;27.15;;;11.63;;
55811;SDS011;41742;52.048;6.092;2022-12-18T03:26:52;33.80;;;11.77;;
55811;SDS011;41742;52.048;6.092;2022-12-18T03:29:22;30.48;;;11.48;;
55811;SDS011;41742;52.048;6.092;2022-12-18T03:31:54;25.17;;;11.57;;
55811;SDS011;41742;52.048;6.092;2022-12-18T03:34:29;27.42;;;12.20;;
55811;SDS011;41742;52.048;6.092;2022-12-18T03:37:01;23.48;;;11.43;;
55811;SDS011;41742;52.048;6.092;2022-12-18T03:39:27;28.30;;;10.43;;
55811;SDS011;41742;52.048;6.092;2022-12-18T03:42:03;24.65;;;11.27;;
55811;SDS011;41742;52.048;6.092;2022-12-18T03:49:58;24.70;;;11.60;;
55811;SDS011;41742;52.048;6.092;2022-12-18T03:52:56;22.33;;;10.40;;
55811;SDS011;41742;52.048;6.092;2022-12-18T03:55:29;21.80;;;10.98;;
55811;SDS011;41742;52.048;6.092;2022-12-18T03:58:01;28.30;;;11.35;;
55811;SDS011;41742;52.048;6.092;2022-12-18T04:00:39;27.70;;;11.07;;
55811;SDS011;41742;52.048;6.092;2022-12-18T04:03:07;25.70;;;11.32;;
55811;SDS011;41742;52.048;6.092;2022-12-18T04:05:40;19.95;;;10.07;;
55811;SDS011;41742;52.048;6.092;2022-12-18T04:08:08;18.58;;;9.38;;
55811;SDS011;41742;52.048;6.092;2022-12-18T04:10:37;21.77;;;9.63;;
55811;SDS011;41742;52.048;6.092;2022-12-18T04:13:03;22.70;;;10.27;;
55811;SDS011;41742;52.048;6.092;2022-12-18T04:15:28;18.38;;;9.30;;
55811;SDS011;41742;52.048;6.092;2022-12-18T04:17:55;18.85;;;8.68;;
55811;SDS011;41742;52.048;6.092;2022-12-18T04:20:23;17.67;;;8.43;;
55811;SDS011;41742;52.048;6.092;2022-12-18T04:22:49;19.67;;;9.07;;
55811;SDS011;41742;52.048;6.092;2022-12-18T04:25:17;18.33;;;9.00;;
55811;SDS011;41742;52.048;6.092;2022-12-18T04:27:56;20.77;;;8.70;;
55811;SDS011;41742;52.048;6.092;2022-12-18T04:30:22;15.63;;;9.48;;
55811;SDS011;41742;52.048;6.092;2022-12-18T04:32:47;24.70;;;9.45;;
55811;SDS011;41742;52.048;6.092;2022-12-18T04:35:13;23.35;;;9.02;;
55811;SDS011;41742;52.048;6.092;2022-12-18T04:37:42;19.35;;;9.35;;
55811;SDS011;41742;52.048;6.092;2022-12-18T04:40:07;22.05;;;9.40;;
55811;SDS011;41742;52.048;6.092;2022-12-18T04:42:39;20.13;;;9.65;;
55811;SDS011;41742;52.048;6.092;2022-12-18T04:45:06;20.52;;;8.48;;
55811;SDS011;41742;52.048;6.092;2022-12-18T04:47:32;19.90;;;9.00;;
55811;SDS011;41742;52.048;6.092;2022-12-18T04:49:57;14.43;;;8.75;;
55811;SDS011;41742;52.048;6.092;2022-12-18T04:52:23;25.25;;;8.35;;
55811;SDS011;41742;52.048;6.092;2022-12-18T04:54:49;18.52;;;8.63;;
55811;SDS011;41742;52.048;6.092;2022-12-18T04:57:14;18.92;;;9.02;;
55811;SDS011;41742;52.048;6.092;2022-12-18T04:59:41;21.90;;;8.35;;
55811;SDS011;41742;52.048;6.092;2022-12-18T05:02:07;13.85;;;8.13;;
55811;SDS011;41742;52.048;6.092;2022-12-18T05:04:32;21.40;;;8.10;;
55811;SDS011;41742;52.048;6.092;2022-12-18T05:06:58;13.60;;;7.57;;
55811;SDS011;41742;52.048;6.092;2022-12-18T05:09:23;15.73;;;7.82;;
55811;SDS011;41742;52.048;6.092;2022-12-18T05:11:49;19.83;;;8.55;;
55811;SDS011;41742;52.048;6.092;2022-12-18T05:14:15;16.20;;;8.05;;
55811;SDS011;41742;52.048;6.092;2022-12-18T05:16:40;21.25;;;7.78;;
55811;SDS011;41742;52.048;6.092;2022-12-18T05:19:06;20.50;;;7.93;;
55811;SDS011;41742;52.048;6.092;2022-12-18T05:21:31;26.20;;;8.38;;
55811;SDS011;41742;52.048;6.092;2022-12-18T05:23:57;25.13;;;8.85;;
55811;SDS011;41742;52.048;6.092;2022-12-18T05:26:23;13.50;;;6.85;;
55811;SDS011;41742;52.048;6.092;2022-12-18T05:28:48;17.20;;;8.15;;
55811;SDS011;41742;52.048;6.092;2022-12-18T05:31:14;19.45;;;8.15;;
55811;SDS011;41742;52.048;6.092;2022-12-18T05:33:40;21.75;;;8.93;;
55811;SDS011;41742;52.048;6.092;2022-12-18T05:36:06;16.63;;;8.68;;
55811;SDS011;41742;52.048;6.092;2022-12-18T05:38:34;18.63;;;9.05;;
55811;SDS011;41742;52.048;6.092;2022-12-18T05:41:01;16.73;;;7.63;;
55811;SDS011;41742;52.048;6.092;2022-12-18T05:43:27;20.13;;;8.82;;
55811;SDS011;41742;52.048;6.092;2022-12-18T05:45:53;21.75;;;8.00;;
55811;SDS011;41742;52.048;6.092;2022-12-18T05:48:21;17.55;;;8.05;;
55811;SDS011;41742;52.048;6.092;2022-12-18T05:50:47;19.95;;;8.32;;
55811;SDS011;41742;52.048;6.092;2022-12-18T05:53:15;19.08;;;9.63;;
55811;SDS011;41742;52.048;6.092;2022-12-18T05:55:42;16.15;;;8.20;;
55811;SDS011;41742;52.048;6.092;2022-12-18T05:58:09;19.17;;;8.75;;
55811;SDS011;41742;52.048;6.092;2022-12-18T06:00:36;13.70;;;7.80;;
55811;SDS011;41742;52.048;6.092;2022-12-18T06:03:06;16.50;;;8.65;;
55811;SDS011;41742;52.048;6.092;2022-12-18T06:05:40;19.35;;;7.22;;
55811;SDS011;41742;52.048;6.092;2022-12-18T06:08:08;18.02;;;8.45;;
55811;SDS011;41742;52.048;6.092;2022-12-18T06:10:34;20.48;;;8.63;;
55811;SDS011;41742;52.048;6.092;2022-12-18T06:13:00;19.30;;;9.00;;
55811;SDS011;41742;52.048;6.092;2022-12-18T06:15:26;15.93;;;7.68;;
55811;SDS011;41742;52.048;6.092;2022-12-18T06:17:52;15.60;;;8.00;;
55811;SDS011;41742;52.048;6.092;2022-12-18T06:20:17;16.58;;;8.15;;
55811;SDS011;41742;52.048;6.092;2022-12-18T06:22:43;15.85;;;7.82;;
55811;SDS011;41742;52.048;6.092;2022-12-18T06:25:09;14.70;;;6.97;;
55811;SDS011;41742;52.048;6.092;2022-12-18T06:27:35;18.75;;;7.65;;
55811;SDS011;41742;52.048;6.092;2022-12-18T06:30:00;17.85;;;9.02;;
55811;SDS011;41742;52.048;6.092;2022-12-18T06:32:27;13.27;;;6.88;;
55811;SDS011;41742;52.048;6.092;2022-12-18T06:34:52;15.27;;;7.50;;
55811;SDS011;41742;52.048;6.092;2022-12-18T06:37:20;15.77;;;7.80;;
55811;SDS011;41742;52.048;6.092;2022-12-18T06:39:46;17.58;;;9.13;;
55811;SDS011;41742;52.048;6.092;2022-12-18T06:42:11;20.27;;;7.55;;
55811;SDS011;41742;52.048;6.092;2022-12-18T06:44:37;18.25;;;7.18;;
55811;SDS011;41742;52.048;6.092;2022-12-18T06:47:03;12.35;;;6.65;;
55811;SDS011;41742;52.048;6.092;2022-12-18T06:49:28;13.38;;;7.40;;
55811;SDS011;41742;52.048;6.092;2022-12-18T06:51:54;17.38;;;7.10;;
55811;SDS011;41742;52.048;6.092;2022-12-18T06:54:20;18.52;;;7.97;;
55811;SDS011;41742;52.048;6.092;2022-12-18T06:56:46;18.85;;;8.38;;
55811;SDS011;41742;52.048;6.092;2022-12-18T06:59:12;15.13;;;7.63;;
55811;SDS011;41742;52.048;6.092;2022-12-18T07:01:38;13.68;;;7.10;;
55811;SDS011;41742;52.048;6.092;2022-12-18T07:04:04;18.58;;;7.45;;
55811;SDS011;41742;52.048;6.092;2022-12-18T07:06:29;13.82;;;7.22;;
55811;SDS011;41742;52.048;6.092;2022-12-18T07:08:55;16.65;;;8.50;;
55811;SDS011;41742;52.048;6.092;2022-12-18T07:11:21;14.27;;;7.53;;
55811;SDS011;41742;52.048;6.092;2022-12-18T07:13:47;16.88;;;8.00;;
55811;SDS011;41742;52.048;6.092;2022-12-18T07:16:14;15.40;;;7.05;;
55811;SDS011;41742;52.048;6.092;2022-12-18T07:18:42;15.57;;;7.40;;
55811;SDS011;41742;52.048;6.092;2022-12-18T07:21:09;19.00;;;8.38;;
55811;SDS011;41742;52.048;6.092;2022-12-18T07:23:37;19.75;;;7.40;;
55811;SDS011;41742;52.048;6.092;2022-12-18T07:26:03;15.48;;;7.38;;
55811;SDS011;41742;52.048;6.092;2022-12-18T07:28:30;15.02;;;7.78;;
55811;SDS011;41742;52.048;6.092;2022-12-18T07:30:57;18.30;;;8.32;;
55811;SDS011;41742;52.048;6.092;2022-12-18T07:33:24;14.25;;;7.25;;
55811;SDS011;41742;52.048;6.092;2022-12-18T07:35:50;15.82;;;7.68;;
55811;SDS011;41742;52.048;6.092;2022-12-18T07:38:16;15.02;;;7.82;;
55811;SDS011;41742;52.048;6.092;2022-12-18T07:40:41;14.45;;;6.82;;
55811;SDS011;41742;52.048;6.092;2022-12-18T07:43:07;17.13;;;7.65;;
55811;SDS011;41742;52.048;6.092;2022-12-18T07:45:32;17.55;;;7.90;;
55811;SDS011;41742;52.048;6.092;2022-12-18T07:47:58;16.60;;;7.13;;
55811;SDS011;41742;52.048;6.092;2022-12-18T07:50:24;13.50;;;7.28;;
55811;SDS011;41742;52.048;6.092;2022-12-18T07:52:49;13.73;;;7.32;;
55811;SDS011;41742;52.048;6.092;2022-12-18T07:55:15;10.98;;;6.07;;
55811;SDS011;41742;52.048;6.092;2022-12-18T07:57:40;19.92;;;7.45;;
55811;SDS011;41742;52.048;6.092;2022-12-18T08:00:06;12.65;;;6.95;;
55811;SDS011;41742;52.048;6.092;2022-12-18T08:02:37;18.83;;;7.22;;
55811;SDS011;41742;52.048;6.092;2022-12-18T08:05:03;12.23;;;6.43;;
55811;SDS011;41742;52.048;6.092;2022-12-18T08:07:29;15.20;;;7.03;;
55811;SDS011;41742;52.048;6.092;2022-12-18T08:09:54;14.98;;;7.32;;
55811;SDS011;41742;52.048;6.092;2022-12-18T08:12:20;14.02;;;7.43;;
55811;SDS011;41742;52.048;6.092;2022-12-18T08:14:45;12.60;;;6.88;;
55811;SDS011;41742;52.048;6.092;2022-12-18T08:17:11;17.50;;;6.93;;
55811;SDS011;41742;52.048;6.092;2022-12-18T08:19:37;14.80;;;6.00;;
55811;SDS011;41742;52.048;6.092;2022-12-18T08:22:02;23.40;;;7.78;;
55811;SDS011;41742;52.048;6.092;2022-12-18T08:24:28;13.05;;;7.22;;
55811;SDS011;41742;52.048;6.092;2022-12-18T08:26:53;19.10;;;7.90;;
55811;SDS011;41742;52.048;6.092;2022-12-18T08:29:19;16.95;;;7.20;;
55811;SDS011;41742;52.048;6.092;2022-12-18T08:31:45;17.90;;;9.35;;
55811;SDS011;41742;52.048;6.092;2022-12-18T08:34:11;19.90;;;9.50;;
55811;SDS011;41742;52.048;6.092;2022-12-18T08:36:36;19.20;;;10.70;;
55811;SDS011;41742;52.048;6.092;2022-12-18T08:39:02;14.90;;;8.07;;
55811;SDS011;41742;52.048;6.092;2022-12-18T08:41:27;27.02;;;12.02;;
55811;SDS011;41742;52.048;6.092;2022-12-18T08:43:53;17.30;;;8.98;;
55811;SDS011;41742;52.048;6.092;2022-12-18T08:46:38;21.65;;;8.90;;
55811;SDS011;41742;52.048;6.092;2022-12-18T08:49:06;16.23;;;7.75;;
55811;SDS011;41742;52.048;6.092;2022-12-18T08:51:33;13.13;;;6.47;;
55811;SDS011;41742;52.048;6.092;2022-12-18T08:53:59;16.05;;;7.18;;
55811;SDS011;41742;52.048;6.092;2022-12-18T08:56:25;16.02;;;6.47;;
55811;SDS011;41742;52.048;6.092;2022-12-18T08:58:51;17.05;;;6.63;;
55811;SDS011;41742;52.048;6.092;2022-12-18T09:01:18;20.20;;;5.60;;
55811;SDS011;41742;52.048;6.092;2022-12-18T09:03:44;15.25;;;5.43;;
55811;SDS011;41742;52.048;6.092;2022-12-18T09:06:12;10.25;;;5.38;;
55811;SDS011;41742;52.048;6.092;2022-12-18T09:08:40;14.25;;;5.53;;
55811;SDS011;41742;52.048;6.092;2022-12-18T09:11:11;14.63;;;7.40;;
55811;SDS011;41742;52.048;6.092;2022-12-18T09:13:39;12.85;;;5.55;;
55811;SDS011;41742;52.048;6.092;2022-12-18T09:16:05;17.35;;;5.53;;
55811;SDS011;41742;52.048;6.092;2022-12-18T09:18:31;12.00;;;5.78;;
55811;SDS011;41742;52.048;6.092;2022-12-18T09:20:56;13.27;;;5.55;;
55811;SDS011;41742;52.048;6.092;2022-12-18T09:23:22;25.23;;;6.82;;
55811;SDS011;41742;52.048;6.092;2022-12-18T09:25:48;16.83;;;6.25;;
55811;SDS011;41742;52.048;6.092;2022-12-18T09:28:14;13.85;;;6.15;;
55811;SDS011;41742;52.048;6.092;2022-12-18T09:30:43;13.45;;;5.95;;
55811;SDS011;41742;52.048;6.092;2022-12-18T09:33:10;14.50;;;5.70;;
55811;SDS011;41742;52.048;6.092;2022-12-18T09:35:36;10.38;;;5.65;;
55811;SDS011;41742;52.048;6.092;2022-12-18T09:38:04;12.75;;;5.50;;
55811;SDS011;41742;52.048;6.092;2022-12-18T09:40:39;15.45;;;5.78;;
55811;SDS011;41742;52.048;6.092;2022-12-18T09:45:51;9.73;;;5.45;;
55811;SDS011;41742;52.048;6.092;2022-12-18T09:48:27;11.60;;;5.60;;
55811;SDS011;41742;52.048;6.092;2022-12-18T09:50:58;11.35;;;5.60;;
55811;SDS011;41742;52.048;6.092;2022-12-18T09:53:31;11.55;;;5.43;;
55811;SDS011;41742;52.048;6.092;2022-12-18T09:56:00;11.15;;;5.45;;
55811;SDS011;41742;52.048;6.092;2022-12-18T10:01:01;11.40;;;5.47;;
55811;SDS011;41742;52.048;6.092;2022-12-18T10:03:27;10.10;;;5.75;;
55811;SDS011;41742;52.048;6.092;2022-12-18T10:14:21;12.75;;;5.72;;
55811;SDS011;41742;52.048;6.092;2022-12-18T10:17:05;11.63;;;5.63;;
55811;SDS011;41742;52.048;6.092;2022-12-18T10:25:16;9.15;;;4.20;;
55811;SDS011;41742;52.048;6.092;2022-12-18T10:28:13;10.05;;;4.95;;
55811;SDS011;41742;52.048;6.092;2022-12-18T10:30:40;7.38;;;3.53;;
55811;SDS011;41742;52.048;6.092;2022-12-18T10:33:10;9.98;;;5.03;;
55811;SDS011;41742;52.048;6.092;2022-12-18T10:35:40;8.32;;;4.47;;
55811;SDS011;41742;52.048;6.092;2022-12-18T10:40:32;12.93;;;5.53;;
55811;SDS011;41742;52.048;6.092;2022-12-18T10:43:33;9.05;;;4.70;;
55811;SDS011;41742;52.048;6.092;2022-12-18T10:48:34;9.15;;;4.55;;
55811;SDS011;41742;52.048;6.092;2022-12-18T10:51:05;9.90;;;4.15;;
55811;SDS011;41742;52.048;6.092;2022-12-18T10:53:33;15.35;;;4.80;;
55811;SDS011;41742;52.048;6.092;2022-12-18T10:56:01;11.75;;;6.28;;
55811;SDS011;41742;52.048;6.092;2022-12-18T10:58:30;13.00;;;5.65;;
55811;SDS011;41742;52.048;6.092;2022-12-18T11:01:05;9.50;;;4.53;;
55811;SDS011;41742;52.048;6.092;2022-12-18T11:03:44;13.23;;;5.10;;
55811;SDS011;41742;52.048;6.092;2022-12-18T11:06:33;9.60;;;5.47;;
55811;SDS011;41742;52.048;6.092;2022-12-18T11:09:00;12.35;;;4.95;;
55811;SDS011;41742;52.048;6.092;2022-12-18T11:11:27;7.85;;;4.60;;
55811;SDS011;41742;52.048;6.092;2022-12-18T11:14:11;6.68;;;3.83;;
55811;SDS011;41742;52.048;6.092;2022-12-18T11:16:49;11.50;;;5.10;;
55811;SDS011;41742;52.048;6.092;2022-12-18T11:21:52;11.98;;;6.43;;
55811;SDS011;41742;52.048;6.092;2022-12-18T11:24:29;7.10;;;4.05;;
55811;SDS011;41742;52.048;6.092;2022-12-18T11:27:03;11.73;;;4.72;;
55811;SDS011;41742;52.048;6.092;2022-12-18T11:29:32;9.25;;;4.35;;
55811;SDS011;41742;52.048;6.092;2022-12-18T11:34:53;13.35;;;5.80;;
55811;SDS011;41742;52.048;6.092;2022-12-18T11:37:26;15.50;;;6.20;;
55811;SDS011;41742;52.048;6.092;2022-12-18T11:39:58;12.15;;;7.57;;
55811;SDS011;41742;52.048;6.092;2022-12-18T11:42:50;12.63;;;6.10;;
55811;SDS011;41742;52.048;6.092;2022-12-18T11:45:28;8.02;;;5.47;;
55811;SDS011;41742;52.048;6.092;2022-12-18T11:50:55;9.68;;;4.82;;
55811;SDS011;41742;52.048;6.092;2022-12-18T11:53:24;12.80;;;6.32;;
55811;SDS011;41742;52.048;6.092;2022-12-18T11:58:24;11.25;;;6.38;;
55811;SDS011;41742;52.048;6.092;2022-12-18T12:06:26;10.60;;;5.63;;
55811;SDS011;41742;52.048;6.092;2022-12-18T12:17:34;11.68;;;6.00;;
55811;SDS011;41742;52.048;6.092;2022-12-18T12:23:02;8.30;;;4.93;;
55811;SDS011;41742;52.048;6.092;2022-12-18T12:25:46;9.98;;;5.65;;
55811;SDS011;41742;52.048;6.092;2022-12-18T12:34:03;12.40;;;6.30;;
55811;SDS011;41742;52.048;6.092;2022-12-18T12:39:44;11.15;;;5.90;;
55811;SDS011;41742;52.048;6.092;2022-12-18T12:42:20;12.80;;;6.55;;
55811;SDS011;41742;52.048;6.092;2022-12-18T12:45:06;13.00;;;6.13;;
55811;SDS011;41742;52.048;6.092;2022-12-18T12:47:41;13.10;;;6.28;;
55811;SDS011;41742;52.048;6.092;2022-12-18T12:50:17;11.38;;;5.53;;
55811;SDS011;41742;52.048;6.092;2022-12-18T12:52:46;11.35;;;5.70;;
55811;SDS011;41742;52.048;6.092;2022-12-18T12:55:26;12.55;;;6.60;;
55811;SDS011;41742;52.048;6.092;2022-12-18T13:00:44;17.20;;;5.35;;
55811;SDS011;41742;52.048;6.092;2022-12-18T13:03:24;11.07;;;6.07;;
55811;SDS011;41742;52.048;6.092;2022-12-18T13:06:10;11.00;;;6.22;;
55811;SDS011;41742;52.048;6.092;2022-12-18T13:08:51;11.25;;;6.45;;
55811;SDS011;41742;52.048;6.092;2022-12-18T13:11:30;11.95;;;5.22;;
55811;SDS011;41742;52.048;6.092;2022-12-18T13:14:23;12.38;;;5.80;;
55811;SDS011;41742;52.048;6.092;2022-12-18T13:16:52;12.63;;;5.95;;
55811;SDS011;41742;52.048;6.092;2022-12-18T13:20:03;13.07;;;6.72;;
55811;SDS011;41742;52.048;6.092;2022-12-18T13:22:42;19.50;;;8.00;;
55811;SDS011;41742;52.048;6.092;2022-12-18T13:28:04;17.98;;;6.80;;
55811;SDS011;41742;52.048;6.092;2022-12-18T13:46:42;11.93;;;6.70;;
55811;SDS011;41742;52.048;6.092;2022-12-18T13:51:40;12.40;;;4.88;;
55811;SDS011;41742;52.048;6.092;2022-12-18T13:54:18;11.52;;;5.47;;
55811;SDS011;41742;52.048;6.092;2022-12-18T13:56:58;9.98;;;6.00;;
55811;SDS011;41742;52.048;6.092;2022-12-18T13:59:33;9.52;;;5.05;;
55811;SDS011;41742;52.048;6.092;2022-12-18T14:02:04;11.57;;;5.55;;
55811;SDS011;41742;52.048;6.092;2022-12-18T14:04:36;10.52;;;5.88;;
55811;SDS011;41742;52.048;6.092;2022-12-18T14:09:44;12.40;;;6.32;;
55811;SDS011;41742;52.048;6.092;2022-12-18T14:12:17;11.07;;;5.47;;
55811;SDS011;41742;52.048;6.092;2022-12-18T14:15:16;11.97;;;7.27;;
55811;SDS011;41742;52.048;6.092;2022-12-18T14:17:52;14.88;;;6.93;;
55811;SDS011;41742;52.048;6.092;2022-12-18T14:20:31;14.10;;;6.25;;
55811;SDS011;41742;52.048;6.092;2022-12-18T14:22:59;10.45;;;5.50;;
55811;SDS011;41742;52.048;6.092;2022-12-18T14:25:29;9.95;;;5.68;;
55811;SDS011;41742;52.048;6.092;2022-12-18T14:28:11;11.95;;;5.55;;
55811;SDS011;41742;52.048;6.092;2022-12-18T14:30:45;7.95;;;4.90;;
55811;SDS011;41742;52.048;6.092;2022-12-18T14:33:12;12.90;;;4.88;;
55811;SDS011;41742;52.048;6.092;2022-12-18T14:38:23;12.05;;;6.80;;
55811;SDS011;41742;52.048;6.092;2022-12-18T14:40:57;12.77;;;6.22;;
55811;SDS011;41742;52.048;6.092;2022-12-18T14:43:27;10.07;;;5.65;;
55811;SDS011;41742;52.048;6.092;2022-12-18T14:45:55;12.45;;;6.35;;
55811;SDS011;41742;52.048;6.092;2022-12-18T14:48:39;12.27;;;6.40;;
55811;SDS011;41742;52.048;6.092;2022-12-18T14:51:17;11.15;;;5.50;;
55811;SDS011;41742;52.048;6.092;2022-12-18T14:53:59;9.50;;;5.38;;
55811;SDS011;41742;52.048;6.092;2022-12-18T14:56:36;10.57;;;4.82;;
55811;SDS011;41742;52.048;6.092;2022-12-18T14:59:19;7.88;;;5.18;;
55811;SDS011;41742;52.048;6.092;2022-12-18T15:02:00;12.48;;;4.90;;
55811;SDS011;41742;52.048;6.092;2022-12-18T15:04:28;12.93;;;5.72;;
55811;SDS011;41742;52.048;6.092;2022-12-18T15:07:17;8.10;;;4.50;;
55811;SDS011;41742;52.048;6.092;2022-12-18T15:10:04;18.70;;;9.63;;
55811;SDS011;41742;52.048;6.092;2022-12-18T15:12:43;14.88;;;5.82;;
55811;SDS011;41742;52.048;6.092;2022-12-18T15:16:10;10.00;;;5.47;;
55811;SDS011;41742;52.048;6.092;2022-12-18T15:23:20;14.73;;;5.55;;
55811;SDS011;41742;52.048;6.092;2022-12-18T15:25:48;8.45;;;4.72;;
55811;SDS011;41742;52.048;6.092;2022-12-18T15:28:36;18.25;;;6.25;;
55811;SDS011;41742;52.048;6.092;2022-12-18T15:33:40;10.48;;;5.68;;
55811;SDS011;41742;52.048;6.092;2022-12-18T15:36:14;8.00;;;4.95;;
55811;SDS011;41742;52.048;6.092;2022-12-18T15:38:41;13.38;;;6.38;;
55811;SDS011;41742;52.048;6.092;2022-12-18T15:41:13;9.93;;;5.75;;
55811;SDS011;41742;52.048;6.092;2022-12-18T15:43:39;25.77;;;9.52;;
55811;SDS011;41742;52.048;6.092;2022-12-18T15:46:10;56.80;;;17.48;;
55811;SDS011;41742;52.048;6.092;2022-12-18T15:48:39;18.40;;;6.82;;
55811;SDS011;41742;52.048;6.092;2022-12-18T15:53:54;15.73;;;6.35;;
55811;SDS011;41742;52.048;6.092;2022-12-18T15:56:23;13.40;;;6.22;;
55811;SDS011;41742;52.048;6.092;2022-12-18T16:01:37;17.13;;;7.78;;
55811;SDS011;41742;52.048;6.092;2022-12-18T16:04:03;11.65;;;6.78;;
55811;SDS011;41742;52.048;6.092;2022-12-18T16:06:28;18.60;;;7.20;;
55811;SDS011;41742;52.048;6.092;2022-12-18T16:08:54;17.85;;;7.32;;
55811;SDS011;41742;52.048;6.092;2022-12-18T16:11:21;14.38;;;6.60;;
55811;SDS011;41742;52.048;6.092;2022-12-18T16:14:12;7.68;;;3.90;;
55811;SDS011;41742;52.048;6.092;2022-12-18T16:16:46;17.25;;;7.40;;
55811;SDS011;41742;52.048;6.092;2022-12-18T16:19:13;11.90;;;6.30;;
55811;SDS011;41742;52.048;6.092;2022-12-18T16:21:38;16.05;;;7.90;;
55811;SDS011;41742;52.048;6.092;2022-12-18T16:24:04;16.02;;;8.00;;
55811;SDS011;41742;52.048;6.092;2022-12-18T16:26:30;14.50;;;7.75;;
55811;SDS011;41742;52.048;6.092;2022-12-18T16:28:56;10.45;;;4.57;;
55811;SDS011;41742;52.048;6.092;2022-12-18T16:31:21;10.50;;;5.60;;
55811;SDS011;41742;52.048;6.092;2022-12-18T16:33:47;17.67;;;7.78;;
55811;SDS011;41742;52.048;6.092;2022-12-18T16:36:13;19.05;;;7.80;;
55811;SDS011;41742;52.048;6.092;2022-12-18T16:38:38;12.85;;;7.28;;
55811;SDS011;41742;52.048;6.092;2022-12-18T16:41:15;17.45;;;7.60;;
55811;SDS011;41742;52.048;6.092;2022-12-18T16:43:56;17.33;;;7.00;;
55811;SDS011;41742;52.048;6.092;2022-12-18T16:46:22;17.27;;;8.05;;
55811;SDS011;41742;52.048;6.092;2022-12-18T16:48:47;10.88;;;6.43;;
55811;SDS011;41742;52.048;6.092;2022-12-18T16:51:13;16.15;;;7.28;;
55811;SDS011;41742;52.048;6.092;2022-12-18T16:53:39;16.15;;;7.35;;
55811;SDS011;41742;52.048;6.092;2022-12-18T16:56:05;23.52;;;8.00;;
55811;SDS011;41742;52.048;6.092;2022-12-18T16:58:31;14.88;;;7.78;;
55811;SDS011;41742;52.048;6.092;2022-12-18T17:00:56;15.55;;;7.40;;
55811;SDS011;41742;52.048;6.092;2022-12-18T17:03:22;22.73;;;6.45;;